Neuenland Airport (BRE/EDDW)




Flight Aircraft Arriving
CPX1138 B738
EBLG - Liège Airport
Belgium Liege, Belgium
Flight Aircraft Departing
CPX1137 B738
EBLG - Liège Airport
Belgium Liege, Belgium
Airport Information
Location: Bremen, DE
Coordinates: 53.0475 / 8.78667
Elevation:
Time Offset:
Local Time:
UTC Time:
Jet A Price: $/lbs

Current Weather
METAR: EDDW 051450Z 19006KT 9999 FEW014 SCT027 05/03 Q1000 R88/290095 NOSIG
TAF: TAF EDDW 051100Z 0512/0612 19007KT 9999 SCT020 BECMG 0517/0519 13004KT TEMPO 0521/0607 3000 BR BKN007 PROB30 TEMPO 0522/0606 0700 FG VV002 TEMPO 0607/0612 3500 -RA BKN007

Recent Arrivals
Date Flight Type Depart
09/03/2020 CPX1137 B738 Liège Airport (EBLG)
11/05/2019 CPX737 B738 Liège Airport (EBLG)
10/27/2019 CPX737 B738 Liège Airport (EBLG)
10/12/2019 CPX737 B738 Liège Airport (EBLG)
Recent Departures
Date Flight Type Arrive
09/03/2020 CPX1138 B738 Liège Airport (EBLG)
11/07/2019 CPX738 B738 Liège Airport (EBLG)
10/28/2019 CPX738 B738 Liège Airport (EBLG)
10/16/2019 CPX738 B738 Liège Airport (EBLG)